createdAt,value
2023-05-22T00:00:04.186Z,3.60
2023-05-22T00:02:30.847Z,3.65
2023-05-22T00:04:59.079Z,3.60
2023-05-22T00:07:25.659Z,4.05
2023-05-22T00:09:52.234Z,3.95
2023-05-22T00:12:18.793Z,3.58
2023-05-22T00:14:45.478Z,3.80
2023-05-22T00:17:12.079Z,3.78
2023-05-22T00:19:38.747Z,3.22
2023-05-22T00:22:06.868Z,3.72
2023-05-22T00:24:33.430Z,3.53
2023-05-22T00:27:00.065Z,3.60
2023-05-22T00:29:26.769Z,3.45
2023-05-22T00:31:53.344Z,3.72
2023-05-22T00:34:20.023Z,3.00
2023-05-22T00:36:46.777Z,3.75
2023-05-22T00:39:14.720Z,3.65
2023-05-22T00:41:41.330Z,3.30
2023-05-22T00:44:08.009Z,3.33
2023-05-22T00:46:35.038Z,3.22
2023-05-22T00:49:01.741Z,3.38
2023-05-22T00:51:28.453Z,3.30
2023-05-22T00:53:55.571Z,3.50
2023-05-22T00:56:24.187Z,3.70
2023-05-22T00:58:50.889Z,3.53
2023-05-22T01:01:17.628Z,3.22
2023-05-22T01:03:45.673Z,3.38
2023-05-22T01:06:13.414Z,3.15
2023-05-22T01:08:40.739Z,3.88
2023-05-22T01:11:14.463Z,3.70
2023-05-22T01:13:51.671Z,3.65
2023-05-22T01:16:24.835Z,3.03
2023-05-22T01:18:59.180Z,3.10
2023-05-22T01:21:35.682Z,3.97
2023-05-22T01:24:32.986Z,3.33
2023-05-22T01:27:29.566Z,3.75
2023-05-22T01:30:12.525Z,3.15
2023-05-22T01:32:43.057Z,3.38
2023-05-22T01:35:11.211Z,4.18
2023-05-22T01:37:38.924Z,3.45
2023-05-22T01:40:07.482Z,3.08
2023-05-22T01:42:34.836Z,3.47
2023-05-22T01:45:01.510Z,3.63
2023-05-22T01:47:28.203Z,3.50
2023-05-22T01:49:56.160Z,3.30
2023-05-22T01:52:30.911Z,2.97
2023-05-22T01:55:00.693Z,3.55
2023-05-22T01:57:32.438Z,3.55
2023-05-22T02:00:06.641Z,2.83
2023-05-22T02:02:36.376Z,3.40
2023-05-22T02:05:06.220Z,3.85
2023-05-22T02:07:36.528Z,3.80
2023-05-22T02:10:04.432Z,3.65
2023-05-22T02:12:31.316Z,3.40
2023-05-22T02:14:58.044Z,3.67
2023-05-22T02:17:24.664Z,3.72
2023-05-22T02:19:51.278Z,4.15
2023-05-22T02:22:19.212Z,4.07
2023-05-22T02:24:48.362Z,3.60
2023-05-22T02:27:14.931Z,3.67
2023-05-22T02:29:41.636Z,4.43
2023-05-22T02:32:08.401Z,3.80
2023-05-22T02:34:34.960Z,4.18
2023-05-22T02:37:01.687Z,3.70
2023-05-22T02:39:29.734Z,3.65
2023-05-22T02:41:56.311Z,3.97
2023-05-22T02:44:22.911Z,4.07
2023-05-22T02:46:49.569Z,3.80
2023-05-22T02:49:16.170Z,3.85
2023-05-22T02:51:42.719Z,4.30
2023-05-22T02:54:09.275Z,4.63
2023-05-22T02:56:37.191Z,3.60
2023-05-22T02:59:03.731Z,4.07
2023-05-22T03:01:30.348Z,4.35
2023-05-22T03:03:57.096Z,3.60
2023-05-22T03:06:23.806Z,3.70
2023-05-22T03:08:50.365Z,3.67
2023-05-22T03:11:16.953Z,3.83
2023-05-22T03:13:45.035Z,3.90
2023-05-22T03:16:11.656Z,4.20
2023-05-22T03:18:38.269Z,4.10
2023-05-22T03:21:05.210Z,3.85
2023-05-22T03:23:32.079Z,3.53
2023-05-22T03:25:58.685Z,3.75
2023-05-22T03:28:25.382Z,3.53
2023-05-22T03:30:53.411Z,4.28
2023-05-22T03:33:20.022Z,3.90
2023-05-22T03:35:46.645Z,3.38
2023-05-22T03:38:13.430Z,4.05
2023-05-22T03:40:40.196Z,3.63
2023-05-22T03:43:06.979Z,3.45
2023-05-22T03:45:33.726Z,3.53
2023-05-22T03:48:02.004Z,3.88
2023-05-22T03:50:28.632Z,3.97
2023-05-22T03:52:55.262Z,3.80
2023-05-22T03:55:21.830Z,3.95
2023-05-22T03:57:48.413Z,3.95
2023-05-22T04:00:15.979Z,3.70
2023-05-22T04:02:42.681Z,3.45
2023-05-22T04:05:10.791Z,4.07
2023-05-22T04:07:37.441Z,3.67
2023-05-22T04:10:04.542Z,3.70
2023-05-22T04:12:31.211Z,3.47
2023-05-22T04:14:57.812Z,3.42
2023-05-22T04:17:26.176Z,3.63
2023-05-22T04:19:52.758Z,4.13
2023-05-22T04:22:20.746Z,3.75
2023-05-22T04:24:47.347Z,3.80
2023-05-22T04:27:14.029Z,4.05
2023-05-22T04:29:40.626Z,3.63
2023-05-22T04:32:07.817Z,3.50
2023-05-22T04:34:34.405Z,3.97
2023-05-22T04:37:00.952Z,3.58
2023-05-22T04:39:28.955Z,3.67
2023-05-22T04:41:55.586Z,3.88
2023-05-22T04:44:22.189Z,3.90
2023-05-22T04:46:49.106Z,3.83
2023-05-22T04:49:15.773Z,3.55
2023-05-22T04:51:42.372Z,3.80
2023-05-22T04:54:08.947Z,3.60
2023-05-22T04:56:37.508Z,3.90
2023-05-22T04:59:04.358Z,3.70
2023-05-22T05:01:33.083Z,3.78
2023-05-22T05:04:00.710Z,3.80
2023-05-22T05:06:27.510Z,4.10
2023-05-22T05:08:54.137Z,4.38
2023-05-22T05:11:20.773Z,4.00
2023-05-22T05:13:48.725Z,3.97
2023-05-22T05:16:15.371Z,4.30
2023-05-22T05:18:42.038Z,4.05
2023-05-22T05:21:09.090Z,3.90
2023-05-22T05:23:35.639Z,4.20
2023-05-22T05:26:02.280Z,3.90
2023-05-22T05:28:29.153Z,4.15
2023-05-22T05:30:57.087Z,4.35
2023-05-22T05:33:23.678Z,4.38
2023-05-22T05:35:50.259Z,4.30
2023-05-22T05:38:16.867Z,3.63
2023-05-22T05:40:43.493Z,4.18
2023-05-22T05:43:10.328Z,4.50
2023-05-22T05:45:37.040Z,4.20
2023-05-22T05:48:08.213Z,4.43
2023-05-22T05:50:35.053Z,4.38
2023-05-22T05:53:01.878Z,5.22
2023-05-22T05:55:28.427Z,4.03
2023-05-22T05:57:55.125Z,4.70
2023-05-22T06:00:21.762Z,5.32
2023-05-22T06:02:50.518Z,4.80
2023-05-22T06:05:18.936Z,4.90
2023-05-22T06:07:45.681Z,4.38
2023-05-22T06:10:13.048Z,5.20
2023-05-22T06:12:39.911Z,4.30
2023-05-22T06:15:07.519Z,4.75
2023-05-22T06:17:34.312Z,4.18
2023-05-22T06:20:01.178Z,4.72
2023-05-22T06:22:29.309Z,4.70
2023-05-22T06:24:55.950Z,4.53
2023-05-22T06:27:23.204Z,4.50
2023-05-22T06:29:50.359Z,4.70
2023-05-22T06:32:17.355Z,5.45
2023-05-22T06:34:47.290Z,4.85
2023-05-22T06:37:13.915Z,4.60
2023-05-22T06:39:41.891Z,4.30
2023-05-22T06:42:08.529Z,4.72
2023-05-22T06:44:35.125Z,4.93
2023-05-22T06:47:01.848Z,4.30
2023-05-22T06:49:28.428Z,4.78
2023-05-22T06:51:55.130Z,5.68
2023-05-22T06:54:21.754Z,5.10
2023-05-22T06:56:49.722Z,6.00
2023-05-22T06:59:16.331Z,4.47
2023-05-22T07:01:42.917Z,4.93
2023-05-22T07:04:09.774Z,4.45
2023-05-22T07:06:36.365Z,4.90
2023-05-22T07:09:03.067Z,4.88
2023-05-22T07:11:29.695Z,5.57
2023-05-22T07:13:57.745Z,4.45
2023-05-22T07:16:25.640Z,4.93
2023-05-22T07:18:52.280Z,5.18
2023-05-22T07:21:18.976Z,5.78
2023-05-22T07:23:45.542Z,4.68
2023-05-22T07:26:12.369Z,4.90
2023-05-22T07:28:38.982Z,4.07
2023-05-22T07:31:07.016Z,5.15
2023-05-22T07:33:33.676Z,4.55
2023-05-22T07:36:00.269Z,4.50
2023-05-22T07:38:26.909Z,5.07
2023-05-22T07:40:53.467Z,4.90
2023-05-22T07:43:20.041Z,4.78
2023-05-22T07:45:46.640Z,4.70
2023-05-22T07:48:14.703Z,5.05
2023-05-22T07:50:41.284Z,4.70
2023-05-22T07:53:07.971Z,4.97
2023-05-22T07:55:34.521Z,5.53
2023-05-22T07:58:01.106Z,4.70
2023-05-22T08:00:27.689Z,5.50
2023-05-22T08:02:54.585Z,5.43
2023-05-22T08:05:22.738Z,4.63
2023-05-22T08:07:49.453Z,4.60
2023-05-22T08:10:17.738Z,4.97
2023-05-22T08:12:44.709Z,4.68
2023-05-22T08:15:11.857Z,5.20
2023-05-22T08:17:38.902Z,5.22
2023-05-22T08:20:07.312Z,5.00
2023-05-22T08:22:35.494Z,5.35
2023-05-22T08:25:03.669Z,5.00
2023-05-22T08:27:30.403Z,4.82
2023-05-22T08:29:56.985Z,5.30
2023-05-22T08:32:23.595Z,5.13
2023-05-22T08:34:50.283Z,5.03
2023-05-22T08:37:17.087Z,5.60
2023-05-22T08:39:45.169Z,4.80
2023-05-22T08:42:11.806Z,4.55
2023-05-22T08:44:39.149Z,4.93
2023-05-22T08:47:07.124Z,5.00
2023-05-22T08:49:34.130Z,4.47
2023-05-22T08:52:07.727Z,4.82
2023-05-22T08:54:36.762Z,4.30
2023-05-22T08:57:05.846Z,4.80
2023-05-22T08:59:34.469Z,4.93
2023-05-22T09:02:01.990Z,4.15
2023-05-22T09:04:29.460Z,4.05
2023-05-22T09:06:56.109Z,3.50
2023-05-22T09:09:22.959Z,4.40
2023-05-22T09:11:49.752Z,5.00
2023-05-22T09:14:18.697Z,4.28
2023-05-22T09:16:46.217Z,4.05
2023-05-22T09:19:13.309Z,4.07
2023-05-22T09:21:39.997Z,4.10
2023-05-22T09:24:08.095Z,4.55
2023-05-22T09:26:34.739Z,3.88
2023-05-22T09:29:01.688Z,4.00
2023-05-22T09:31:29.984Z,3.65
2023-05-22T09:33:57.841Z,3.75
2023-05-22T09:36:31.151Z,3.78
2023-05-22T09:41:26.187Z,3.60
2023-05-22T09:43:52.851Z,3.70
2023-05-22T09:46:19.506Z,3.90
2023-05-22T09:48:51.429Z,3.58
2023-05-22T09:51:19.378Z,4.10
2023-05-22T09:53:48.751Z,3.83
2023-05-22T09:56:24.239Z,4.00
2023-05-22T09:58:54.270Z,3.50
2023-05-22T10:01:22.383Z,4.03
2023-05-22T10:03:54.266Z,3.85
2023-05-22T10:06:22.467Z,3.72
2023-05-22T10:08:54.346Z,4.30
2023-05-22T10:11:21.966Z,4.40
2023-05-22T10:13:49.860Z,4.30
2023-05-22T10:16:16.848Z,3.53
2023-05-22T10:18:45.983Z,3.78
2023-05-22T10:21:17.314Z,4.10
2023-05-22T10:23:44.249Z,4.20
2023-05-22T10:26:11.355Z,3.72
2023-05-22T10:28:42.640Z,3.97
2023-05-22T10:31:19.190Z,4.32
2023-05-22T10:33:51.458Z,3.78
2023-05-22T10:36:37.122Z,3.97
2023-05-22T10:39:16.362Z,3.47
2023-05-22T10:41:42.995Z,3.53
2023-05-22T10:44:09.887Z,3.85
2023-05-22T10:46:36.636Z,3.63
2023-05-22T10:49:03.648Z,3.25
2023-05-22T10:51:32.765Z,3.47
2023-05-22T10:54:00.627Z,3.42
2023-05-22T10:56:39.014Z,3.70
2023-05-22T10:59:15.323Z,3.55
2023-05-22T11:02:00.340Z,3.55
2023-05-22T11:04:27.056Z,3.83
2023-05-22T11:07:04.570Z,3.97
2023-05-22T11:09:35.364Z,3.28
2023-05-22T11:12:19.103Z,3.97
2023-05-22T11:14:55.418Z,3.40
2023-05-22T11:17:23.615Z,3.83
2023-05-22T11:20:07.269Z,3.47
2023-05-22T11:22:38.720Z,3.55
2023-05-22T11:25:08.678Z,4.28
2023-05-22T11:27:36.183Z,3.65
2023-05-22T11:30:04.136Z,3.40
2023-05-22T11:32:35.137Z,3.35
2023-05-22T11:35:02.207Z,3.28
2023-05-22T11:37:29.191Z,3.50
2023-05-22T11:40:02.448Z,3.80
2023-05-22T11:42:30.248Z,3.80
2023-05-22T11:44:59.960Z,3.47
2023-05-22T11:47:37.186Z,3.80
2023-05-22T11:50:07.788Z,3.85
2023-05-22T11:52:38.161Z,3.78
2023-05-22T11:55:07.795Z,3.03
2023-05-22T11:57:35.457Z,3.95
2023-05-22T12:00:13.350Z,3.78
2023-05-22T12:02:45.517Z,3.78
2023-05-22T12:05:13.072Z,3.83
2023-05-22T12:07:39.982Z,4.18
2023-05-22T12:10:14.655Z,3.72
2023-05-22T12:12:43.250Z,3.22
2023-05-22T12:15:10.581Z,4.40
2023-05-22T12:17:38.015Z,3.65
2023-05-22T12:20:05.455Z,3.72
2023-05-22T12:22:32.481Z,3.33
2023-05-22T12:24:59.515Z,3.33
2023-05-22T12:27:31.638Z,3.42
2023-05-22T12:29:59.495Z,3.40
2023-05-22T12:32:29.656Z,3.50
2023-05-22T12:37:48.327Z,3.20
2023-05-22T12:40:15.088Z,3.35
2023-05-22T12:42:43.255Z,3.10
2023-05-22T12:45:11.246Z,3.20
2023-05-22T12:47:37.998Z,3.10
2023-05-22T12:50:06.263Z,3.08
2023-05-22T12:52:32.840Z,3.60
2023-05-22T12:54:59.412Z,3.40
2023-05-22T12:57:26.068Z,2.90
2023-05-22T12:59:54.073Z,3.17
2023-05-22T13:02:20.738Z,3.05
2023-05-22T13:04:47.458Z,3.47
2023-05-22T13:07:16.932Z,3.35
2023-05-22T13:09:46.227Z,3.22
2023-05-22T13:12:15.265Z,2.78
2023-05-22T13:14:44.572Z,3.25
2023-05-22T13:17:12.650Z,2.78
2023-05-22T13:19:44.503Z,2.88
2023-05-22T13:22:11.189Z,3.42
2023-05-22T13:24:38.283Z,3.30
2023-05-22T13:27:05.260Z,3.80
2023-05-22T13:29:32.451Z,3.20
2023-05-22T13:31:59.314Z,3.10
2023-05-22T13:34:28.658Z,2.97
2023-05-22T13:36:55.492Z,3.10
2023-05-22T13:39:22.329Z,3.00
2023-05-22T13:41:49.051Z,3.00
2023-05-22T13:44:15.672Z,3.50
2023-05-22T13:46:42.677Z,3.00
2023-05-22T13:49:09.489Z,3.50
2023-05-22T13:51:37.484Z,3.42
2023-05-22T13:54:04.957Z,2.90
2023-05-22T13:56:34.709Z,3.80
2023-05-22T13:59:09.188Z,3.45
2023-05-22T14:01:36.308Z,3.22
2023-05-22T14:04:03.275Z,3.22
2023-05-22T14:06:33.161Z,3.33
2023-05-22T14:09:02.566Z,3.10
2023-05-22T14:11:29.234Z,3.45
2023-05-22T14:13:55.845Z,3.00
2023-05-22T14:16:29.013Z,2.80
2023-05-22T14:18:55.722Z,2.95
2023-05-22T14:21:22.431Z,3.00
2023-05-22T14:23:48.966Z,2.70
2023-05-22T14:26:17.018Z,3.20
2023-05-22T14:28:43.800Z,2.80
2023-05-22T14:31:10.497Z,3.00
2023-05-22T14:33:37.160Z,3.20
2023-05-22T14:36:04.133Z,3.20
2023-05-22T14:38:32.208Z,3.35
2023-05-22T14:40:58.862Z,3.10
2023-05-22T14:43:27.086Z,3.95
2023-05-22T14:45:54.545Z,3.15
2023-05-22T14:48:21.174Z,3.13
2023-05-22T14:50:47.869Z,3.38
2023-05-22T14:53:14.652Z,2.80
2023-05-22T14:55:41.634Z,3.15
2023-05-22T14:58:08.368Z,3.42
2023-05-22T15:00:36.345Z,3.35
2023-05-22T15:03:03.597Z,3.20
2023-05-22T15:05:30.403Z,3.20
2023-05-22T15:07:57.229Z,2.88
2023-05-22T15:10:24.090Z,2.97
2023-05-22T15:12:50.780Z,3.50
2023-05-22T15:15:17.708Z,2.88
2023-05-22T15:17:45.861Z,3.38
2023-05-22T15:20:12.941Z,3.50
2023-05-22T15:22:39.714Z,3.45
2023-05-22T15:25:08.395Z,2.95
2023-05-22T15:27:35.743Z,3.10
2023-05-22T15:30:03.365Z,3.33
2023-05-22T15:32:31.973Z,3.25
2023-05-22T15:34:59.966Z,3.55
2023-05-22T15:37:26.983Z,3.50
2023-05-22T15:39:53.595Z,3.40
2023-05-22T15:42:20.254Z,3.53
2023-05-22T15:44:46.841Z,3.17
2023-05-22T15:47:13.486Z,3.00
2023-05-22T15:49:40.214Z,3.45
2023-05-22T15:52:08.218Z,3.13
2023-05-22T15:54:34.786Z,3.10
2023-05-22T15:57:01.366Z,3.63
2023-05-22T15:59:27.902Z,3.25
2023-05-22T16:01:54.651Z,3.65
2023-05-22T16:04:21.271Z,3.45
2023-05-22T16:06:47.858Z,3.50
2023-05-22T16:09:16.050Z,3.65
2023-05-22T16:11:42.632Z,3.13
2023-05-22T16:14:09.325Z,3.40
2023-05-22T16:16:35.948Z,3.00
2023-05-22T16:19:02.628Z,3.58
2023-05-22T16:21:29.226Z,3.30
2023-05-22T16:23:55.840Z,3.38
2023-05-22T16:26:23.817Z,3.63
2023-05-22T16:28:50.399Z,3.60
2023-05-22T16:31:18.980Z,3.10
2023-05-22T16:33:45.892Z,3.50
2023-05-22T16:36:12.494Z,3.15
2023-05-22T16:38:39.148Z,3.70
2023-05-22T16:41:05.786Z,3.35
2023-05-22T16:43:33.798Z,3.50
2023-05-22T16:46:00.368Z,3.22
2023-05-22T16:48:27.052Z,3.17
2023-05-22T16:50:53.635Z,3.80
2023-05-22T16:53:20.280Z,3.63
2023-05-22T16:55:46.922Z,3.45
2023-05-22T16:58:13.532Z,3.42
2023-05-22T17:00:41.853Z,3.30
2023-05-22T17:03:09.334Z,3.00
2023-05-22T17:05:37.345Z,3.35
2023-05-22T17:08:04.232Z,7.90
2023-05-22T17:10:30.820Z,3.00
2023-05-22T17:12:57.501Z,5.35
2023-05-22T17:15:24.081Z,4.32
2023-05-22T17:17:52.276Z,3.92
2023-05-22T17:20:20.695Z,3.78
2023-05-22T17:22:47.242Z,3.35
2023-05-22T17:25:14.006Z,4.88
2023-05-22T17:27:40.741Z,3.30
2023-05-22T17:30:08.332Z,3.55
2023-05-22T17:32:35.131Z,3.63
2023-05-22T17:35:03.522Z,3.55
2023-05-22T17:37:30.099Z,3.72
2023-05-22T17:39:56.768Z,3.25
2023-05-22T17:42:23.395Z,3.22
2023-05-22T17:44:50.055Z,3.38
2023-05-22T17:47:16.783Z,3.13
2023-05-22T17:49:43.436Z,3.45
2023-05-22T17:52:11.507Z,3.30
2023-05-22T17:54:38.059Z,3.60
2023-05-22T17:57:04.804Z,3.30
2023-05-22T17:59:32.645Z,3.85
2023-05-22T18:01:59.518Z,3.33
2023-05-22T18:04:26.270Z,3.53
2023-05-22T18:06:53.105Z,3.67
2023-05-22T18:09:21.246Z,3.30
2023-05-22T18:11:47.911Z,3.25
2023-05-22T18:14:14.673Z,3.78
2023-05-22T18:16:41.281Z,3.20
2023-05-22T18:19:07.924Z,3.83
2023-05-22T18:21:34.770Z,3.90
2023-05-22T18:24:01.431Z,3.63
2023-05-22T18:26:29.519Z,3.88
2023-05-22T18:28:56.151Z,3.58
2023-05-22T18:31:22.741Z,3.22
2023-05-22T18:33:49.309Z,4.10
2023-05-22T18:36:15.915Z,3.03
2023-05-22T18:38:42.621Z,3.25
2023-05-22T18:41:09.252Z,3.10
2023-05-22T18:43:37.207Z,2.95
2023-05-22T18:46:04.297Z,3.78
2023-05-22T18:48:30.908Z,3.25
2023-05-22T18:50:57.961Z,3.15
2023-05-22T18:53:24.850Z,3.20
2023-05-22T18:55:51.448Z,3.47
2023-05-22T18:58:18.047Z,3.63
2023-05-22T19:00:46.046Z,3.20
2023-05-22T19:03:12.691Z,3.47
2023-05-22T19:05:39.617Z,3.30
2023-05-22T19:08:06.320Z,3.50
2023-05-22T19:10:33.227Z,3.10
2023-05-22T19:12:59.965Z,3.08
2023-05-22T19:15:26.717Z,3.45
2023-05-22T19:17:54.898Z,3.40
2023-05-22T19:20:22.585Z,3.35
2023-05-22T19:22:49.162Z,3.38
2023-05-22T19:25:15.724Z,3.58
2023-05-22T19:27:42.350Z,3.67
2023-05-22T19:30:09.615Z,3.30
2023-05-22T19:32:36.250Z,3.72
2023-05-22T19:35:04.711Z,3.60
2023-05-22T19:37:31.342Z,4.03
2023-05-22T19:39:57.957Z,3.88
2023-05-22T19:42:24.541Z,3.53
2023-05-22T19:44:51.131Z,3.58
2023-05-22T19:47:17.749Z,3.72
2023-05-22T19:49:44.350Z,3.40
2023-05-22T19:52:12.298Z,3.28
2023-05-22T19:54:38.861Z,3.75
2023-05-22T19:57:05.929Z,3.83
2023-05-22T19:59:34.122Z,3.95
2023-05-22T20:02:02.575Z,4.00
2023-05-22T20:04:29.202Z,3.55
2023-05-22T20:06:55.778Z,3.45
2023-05-22T20:09:23.794Z,3.58
2023-05-22T20:11:50.351Z,3.97
2023-05-22T20:14:17.014Z,3.75
2023-05-22T20:16:43.732Z,3.70
2023-05-22T20:19:10.577Z,3.45
2023-05-22T20:21:37.361Z,3.88
2023-05-22T20:24:04.281Z,4.38
2023-05-22T20:26:32.258Z,3.33
2023-05-22T20:28:58.889Z,4.60
2023-05-22T20:31:25.475Z,3.80
2023-05-22T20:33:52.101Z,3.90
2023-05-22T20:36:18.721Z,3.70
2023-05-22T20:38:45.339Z,3.75
2023-05-22T20:41:11.959Z,3.88
2023-05-22T20:43:39.911Z,3.85
2023-05-22T20:46:06.465Z,3.53
2023-05-22T20:48:33.159Z,3.47
2023-05-22T20:50:59.706Z,3.92
2023-05-22T20:53:26.264Z,3.80
2023-05-22T20:55:52.896Z,3.58
2023-05-22T20:58:19.675Z,3.78
2023-05-22T21:00:47.732Z,4.07
2023-05-22T21:03:14.494Z,3.85
2023-05-22T21:05:41.408Z,4.18
2023-05-22T21:08:08.162Z,3.83
2023-05-22T21:10:34.715Z,4.10
2023-05-22T21:13:01.401Z,4.20
2023-05-22T21:15:28.011Z,4.80
2023-05-22T21:17:56.093Z,4.47
2023-05-22T21:20:22.770Z,5.07
2023-05-22T21:22:49.342Z,4.30
2023-05-22T21:25:16.025Z,4.38
2023-05-22T21:27:42.734Z,4.20
2023-05-22T21:30:11.932Z,4.28
2023-05-22T21:32:38.813Z,4.03
2023-05-22T21:35:08.102Z,4.50
2023-05-22T21:37:35.072Z,4.50
2023-05-22T21:40:01.772Z,3.90
2023-05-22T21:42:34.738Z,3.70
2023-05-22T21:45:12.686Z,3.80
2023-05-22T21:47:39.429Z,4.15
2023-05-22T21:50:08.261Z,4.40
2023-05-22T21:52:35.054Z,4.10
2023-05-22T21:55:01.679Z,4.05
2023-05-22T21:57:28.305Z,3.75
2023-05-22T21:59:55.119Z,4.38
2023-05-22T22:02:21.752Z,3.90
2023-05-22T22:04:48.391Z,4.20
2023-05-22T22:07:16.577Z,3.40
2023-05-22T22:09:43.202Z,3.65
2023-05-22T22:12:09.964Z,3.22
2023-05-22T22:14:36.548Z,3.92
2023-05-22T22:17:03.348Z,3.75
2023-05-22T22:19:30.023Z,3.45
2023-05-22T22:21:56.823Z,3.33
2023-05-22T22:24:24.755Z,3.42
2023-05-22T22:26:51.387Z,3.90
2023-05-22T22:29:17.960Z,3.78
2023-05-22T22:31:44.948Z,3.97
2023-05-22T22:34:11.538Z,3.65
2023-05-22T22:36:38.160Z,3.78
2023-05-22T22:39:05.023Z,3.58
2023-05-22T22:41:33.014Z,3.30
2023-05-22T22:43:59.601Z,3.85
2023-05-22T22:46:26.286Z,3.55
2023-05-22T22:48:52.887Z,3.30
2023-05-22T22:51:19.542Z,3.67
2023-05-22T22:53:46.119Z,3.70
2023-05-22T22:56:12.829Z,3.75
2023-05-22T22:58:40.797Z,3.45
2023-05-22T23:01:07.418Z,3.25
2023-05-22T23:03:34.048Z,3.60
2023-05-22T23:06:00.698Z,3.75
2023-05-22T23:08:27.388Z,3.40
2023-05-22T23:10:53.944Z,3.45
2023-05-22T23:13:20.638Z,3.40
2023-05-22T23:15:48.646Z,3.40
2023-05-22T23:18:15.347Z,3.78
2023-05-22T23:20:41.963Z,3.90
2023-05-22T23:23:08.698Z,3.70
2023-05-22T23:25:35.380Z,3.83
2023-05-22T23:28:02.008Z,4.40
2023-05-22T23:30:28.740Z,3.67
2023-05-22T23:32:56.701Z,4.03
2023-05-22T23:35:23.379Z,3.85
2023-05-22T23:37:50.008Z,3.63
2023-05-22T23:40:16.735Z,3.95
2023-05-22T23:42:43.255Z,3.70
2023-05-22T23:45:10.217Z,3.35
2023-05-22T23:47:37.062Z,4.18
2023-05-22T23:50:06.198Z,3.50
2023-05-22T23:52:32.828Z,4.25
2023-05-22T23:54:59.396Z,3.25
2023-05-22T23:57:25.944Z,3.78
2023-05-22T23:59:52.488Z,4.05
